sensor_id;sensor_type;location;lat;lon;timestamp;P1;durP1;ratioP1;P2;durP2;ratioP2
7211;SDS011;3647;48.792;9.802;2022-09-02T06:07:43;4.78;;;3.42;;
7211;SDS011;3647;48.792;9.802;2022-09-02T06:10:10;5.78;;;3.40;;
7211;SDS011;3647;48.792;9.802;2022-09-02T06:12:37;4.32;;;3.55;;
7211;SDS011;3647;48.792;9.802;2022-09-02T06:15:04;3.97;;;3.55;;
7211;SDS011;3647;48.792;9.802;2022-09-02T06:17:31;4.72;;;3.65;;
7211;SDS011;3647;48.792;9.802;2022-09-02T06:19:58;3.75;;;3.35;;
7211;SDS011;3647;48.792;9.802;2022-09-02T06:22:25;4.13;;;3.72;;
7211;SDS011;3647;48.792;9.802;2022-09-02T06:24:53;5.07;;;3.83;;
7211;SDS011;3647;48.792;9.802;2022-09-02T06:27:20;4.00;;;3.60;;
7211;SDS011;3647;48.792;9.802;2022-09-02T06:29:47;4.55;;;3.47;;
7211;SDS011;3647;48.792;9.802;2022-09-02T06:32:13;3.30;;;3.00;;
7211;SDS011;3647;48.792;9.802;2022-09-02T06:34:40;3.22;;;2.80;;
7211;SDS011;3647;48.792;9.802;2022-09-02T06:37:07;4.35;;;3.38;;
7211;SDS011;3647;48.792;9.802;2022-09-02T06:39:34;6.00;;;3.22;;
7211;SDS011;3647;48.792;9.802;2022-09-02T06:42:03;7.03;;;3.70;;
7211;SDS011;3647;48.792;9.802;2022-09-02T06:44:30;5.43;;;3.42;;
7211;SDS011;3647;48.792;9.802;2022-09-02T06:46:57;9.05;;;3.35;;
7211;SDS011;3647;48.792;9.802;2022-09-02T06:49:25;7.90;;;4.78;;
7211;SDS011;3647;48.792;9.802;2022-09-02T06:51:53;5.38;;;3.45;;
7211;SDS011;3647;48.792;9.802;2022-09-02T06:54:21;3.20;;;3.00;;
7211;SDS011;3647;48.792;9.802;2022-09-02T06:56:49;4.95;;;2.70;;
7211;SDS011;3647;48.792;9.802;2022-09-02T06:59:18;3.25;;;3.00;;
7211;SDS011;3647;48.792;9.802;2022-09-02T07:01:46;4.68;;;3.08;;
7211;SDS011;3647;48.792;9.802;2022-09-02T07:04:13;2.90;;;2.70;;
7211;SDS011;3647;48.792;9.802;2022-09-02T07:06:57;3.03;;;2.83;;
7211;SDS011;3647;48.792;9.802;2022-09-02T07:09:25;2.83;;;2.50;;
7211;SDS011;3647;48.792;9.802;2022-09-02T07:11:55;3.33;;;2.55;;
7211;SDS011;3647;48.792;9.802;2022-09-02T07:14:24;2.90;;;2.60;;
7211;SDS011;3647;48.792;9.802;2022-09-02T07:16:53;3.10;;;2.70;;
7211;SDS011;3647;48.792;9.802;2022-09-02T07:19:22;3.05;;;2.72;;
7211;SDS011;3647;48.792;9.802;2022-09-02T07:21:49;3.85;;;3.08;;
7211;SDS011;3647;48.792;9.802;2022-09-02T07:24:16;3.10;;;2.70;;
7211;SDS011;3647;48.792;9.802;2022-09-02T07:26:44;2.53;;;2.33;;
7211;SDS011;3647;48.792;9.802;2022-09-02T07:29:11;3.22;;;2.92;;
7211;SDS011;3647;48.792;9.802;2022-09-02T07:31:40;3.95;;;2.47;;
7211;SDS011;3647;48.792;9.802;2022-09-02T07:34:09;3.55;;;2.58;;
7211;SDS011;3647;48.792;9.802;2022-09-02T07:36:38;3.03;;;2.50;;
7211;SDS011;3647;48.792;9.802;2022-09-02T07:39:06;3.45;;;1.90;;
7211;SDS011;3647;48.792;9.802;2022-09-02T07:41:35;2.55;;;2.35;;
7211;SDS011;3647;48.792;9.802;2022-09-02T07:44:03;4.07;;;2.42;;
7211;SDS011;3647;48.792;9.802;2022-09-02T07:46:31;2.72;;;2.05;;
7211;SDS011;3647;48.792;9.802;2022-09-02T07:49:00;4.88;;;2.40;;
7211;SDS011;3647;48.792;9.802;2022-09-02T07:51:30;4.10;;;2.10;;
7211;SDS011;3647;48.792;9.802;2022-09-02T07:53:58;3.65;;;1.77;;
7211;SDS011;3647;48.792;9.802;2022-09-02T07:56:24;2.55;;;1.90;;
7211;SDS011;3647;48.792;9.802;2022-09-02T07:58:51;3.67;;;2.20;;
7211;SDS011;3647;48.792;9.802;2022-09-02T08:01:19;2.15;;;1.95;;
7211;SDS011;3647;48.792;9.802;2022-09-02T08:03:46;3.13;;;1.92;;
7211;SDS011;3647;48.792;9.802;2022-09-02T08:06:15;3.05;;;2.25;;
7211;SDS011;3647;48.792;9.802;2022-09-02T08:08:42;1.70;;;1.60;;
7211;SDS011;3647;48.792;9.802;2022-09-02T08:11:09;1.95;;;1.67;;
7211;SDS011;3647;48.792;9.802;2022-09-02T08:13:36;1.98;;;1.88;;
7211;SDS011;3647;48.792;9.802;2022-09-02T08:16:04;2.15;;;1.70;;
7211;SDS011;3647;48.792;9.802;2022-09-02T08:18:31;2.85;;;1.98;;
7211;SDS011;3647;48.792;9.802;2022-09-02T08:20:58;2.17;;;1.70;;
7211;SDS011;3647;48.792;9.802;2022-09-02T08:23:27;3.20;;;1.50;;
7211;SDS011;3647;48.792;9.802;2022-09-02T08:25:54;1.80;;;1.70;;
7211;SDS011;3647;48.792;9.802;2022-09-02T08:28:23;2.50;;;1.80;;
7211;SDS011;3647;48.792;9.802;2022-09-02T08:30:51;3.42;;;1.73;;
7211;SDS011;3647;48.792;9.802;2022-09-02T08:33:18;1.83;;;1.60;;
7211;SDS011;3647;48.792;9.802;2022-09-02T08:35:45;1.45;;;1.35;;
7211;SDS011;3647;48.792;9.802;2022-09-02T08:38:13;4.45;;;1.75;;
7211;SDS011;3647;48.792;9.802;2022-09-02T08:40:41;1.83;;;1.55;;
7211;SDS011;3647;48.792;9.802;2022-09-02T08:43:14;1.73;;;1.63;;
7211;SDS011;3647;48.792;9.802;2022-09-02T08:45:53;5.90;;;1.90;;
7211;SDS011;3647;48.792;9.802;2022-09-02T08:48:26;3.33;;;1.70;;
7211;SDS011;3647;48.792;9.802;2022-09-02T08:51:02;7.07;;;2.20;;
7211;SDS011;3647;48.792;9.802;2022-09-02T08:53:34;2.25;;;1.73;;
7211;SDS011;3647;48.792;9.802;2022-09-02T08:56:07;1.50;;;1.40;;
7211;SDS011;3647;48.792;9.802;2022-09-02T08:58:38;2.42;;;1.50;;
7211;SDS011;3647;48.792;9.802;2022-09-02T09:01:09;3.22;;;1.80;;
7211;SDS011;3647;48.792;9.802;2022-09-02T09:03:48;1.30;;;1.20;;
7211;SDS011;3647;48.792;9.802;2022-09-02T09:06:32;2.08;;;1.98;;
7211;SDS011;3647;48.792;9.802;2022-09-02T09:09:08;2.58;;;1.30;;
7211;SDS011;3647;48.792;9.802;2022-09-02T09:11:43;3.78;;;1.65;;
7211;SDS011;3647;48.792;9.802;2022-09-02T09:14:17;2.05;;;1.73;;
7211;SDS011;3647;48.792;9.802;2022-09-02T09:16:54;1.35;;;1.20;;
7211;SDS011;3647;48.792;9.802;2022-09-02T09:19:26;5.00;;;1.83;;
7211;SDS011;3647;48.792;9.802;2022-09-02T09:22:01;1.67;;;1.58;;
7211;SDS011;3647;48.792;9.802;2022-09-02T09:24:30;3.47;;;1.50;;
7211;SDS011;3647;48.792;9.802;2022-09-02T09:27:03;1.52;;;1.20;;
7211;SDS011;3647;48.792;9.802;2022-09-02T09:29:33;2.90;;;1.23;;
7211;SDS011;3647;48.792;9.802;2022-09-02T09:32:01;2.10;;;1.40;;
7211;SDS011;3647;48.792;9.802;2022-09-02T09:37:32;1.17;;;1.10;;
7211;SDS011;3647;48.792;9.802;2022-09-02T09:40:04;2.47;;;1.25;;
7211;SDS011;3647;48.792;9.802;2022-09-02T09:42:52;2.47;;;1.25;;
7211;SDS011;3647;48.792;9.802;2022-09-02T09:45:25;2.45;;;0.95;;
7211;SDS011;3647;48.792;9.802;2022-09-02T09:48:12;1.98;;;1.55;;
7211;SDS011;3647;48.792;9.802;2022-09-02T09:50:47;1.42;;;1.33;;
7211;SDS011;3647;48.792;9.802;2022-09-02T09:53:32;1.55;;;1.00;;
7211;SDS011;3647;48.792;9.802;2022-09-02T09:56:00;2.72;;;1.50;;
7211;SDS011;3647;48.792;9.802;2022-09-02T09:58:31;1.48;;;1.33;;
7211;SDS011;3647;48.792;9.802;2022-09-02T10:01:09;1.67;;;1.15;;
7211;SDS011;3647;48.792;9.802;2022-09-02T10:03:36;2.97;;;1.38;;
7211;SDS011;3647;48.792;9.802;2022-09-02T10:06:16;2.22;;;1.15;;
7211;SDS011;3647;48.792;9.802;2022-09-02T10:08:49;4.03;;;1.10;;
7211;SDS011;3647;48.792;9.802;2022-09-02T10:11:19;2.83;;;1.20;;
7211;SDS011;3647;48.792;9.802;2022-09-02T10:13:49;1.92;;;1.38;;
7211;SDS011;3647;48.792;9.802;2022-09-02T10:16:32;2.13;;;1.65;;
7211;SDS011;3647;48.792;9.802;2022-09-02T10:19:08;5.03;;;1.40;;
7211;SDS011;3647;48.792;9.802;2022-09-02T10:21:46;1.80;;;1.70;;
7211;SDS011;3647;48.792;9.802;2022-09-02T10:24:30;1.73;;;1.30;;
7211;SDS011;3647;48.792;9.802;2022-09-02T10:27:08;2.20;;;1.52;;
7211;SDS011;3647;48.792;9.802;2022-09-02T10:29:51;1.55;;;1.15;;
7211;SDS011;3647;48.792;9.802;2022-09-02T10:32:25;1.35;;;1.25;;
7211;SDS011;3647;48.792;9.802;2022-09-02T10:35:06;1.27;;;1.17;;
7211;SDS011;3647;48.792;9.802;2022-09-02T10:37:38;2.78;;;1.25;;
7211;SDS011;3647;48.792;9.802;2022-09-02T10:40:16;1.20;;;1.10;;
7211;SDS011;3647;48.792;9.802;2022-09-02T10:42:49;1.40;;;1.20;;
7211;SDS011;3647;48.792;9.802;2022-09-02T10:45:29;1.90;;;1.25;;
7211;SDS011;3647;48.792;9.802;2022-09-02T10:48:04;1.35;;;1.25;;
7211;SDS011;3647;48.792;9.802;2022-09-02T10:50:42;2.38;;;1.33;;
7211;SDS011;3647;48.792;9.802;2022-09-02T10:53:21;1.50;;;1.40;;
7211;SDS011;3647;48.792;9.802;2022-09-02T10:56:00;1.25;;;1.13;;
7211;SDS011;3647;48.792;9.802;2022-09-02T10:58:38;1.27;;;1.17;;
7211;SDS011;3647;48.792;9.802;2022-09-02T11:01:13;1.92;;;1.10;;
7211;SDS011;3647;48.792;9.802;2022-09-02T11:03:46;2.55;;;1.10;;
7211;SDS011;3647;48.792;9.802;2022-09-02T11:06:23;1.27;;;1.17;;
7211;SDS011;3647;48.792;9.802;2022-09-02T11:08:54;2.05;;;1.20;;
7211;SDS011;3647;48.792;9.802;2022-09-02T11:11:25;1.27;;;1.17;;
7211;SDS011;3647;48.792;9.802;2022-09-02T11:13:58;1.60;;;1.30;;
7211;SDS011;3647;48.792;9.802;2022-09-02T11:16:33;1.55;;;1.27;;
7211;SDS011;3647;48.792;9.802;2022-09-02T11:19:05;1.58;;;1.17;;
7211;SDS011;3647;48.792;9.802;2022-09-02T11:21:41;1.38;;;1.27;;
7211;SDS011;3647;48.792;9.802;2022-09-02T11:24:17;1.45;;;1.13;;
7211;SDS011;3647;48.792;9.802;2022-09-02T11:26:48;1.30;;;1.13;;
7211;SDS011;3647;48.792;9.802;2022-09-02T11:29:25;1.20;;;1.10;;
7211;SDS011;3647;48.792;9.802;2022-09-02T11:32:04;1.98;;;1.20;;
7211;SDS011;3647;48.792;9.802;2022-09-02T11:34:36;1.00;;;1.00;;
7211;SDS011;3647;48.792;9.802;2022-09-02T11:37:08;1.83;;;1.27;;
7211;SDS011;3647;48.792;9.802;2022-09-02T11:39:37;1.35;;;1.23;;
7211;SDS011;3647;48.792;9.802;2022-09-02T11:42:11;0.90;;;0.90;;
7211;SDS011;3647;48.792;9.802;2022-09-02T11:48:00;1.00;;;1.00;;
7211;SDS011;3647;48.792;9.802;2022-09-02T11:50:47;1.92;;;1.00;;
7211;SDS011;3647;48.792;9.802;2022-09-02T11:53:31;1.30;;;1.20;;
7211;SDS011;3647;48.792;9.802;2022-09-02T11:56:04;1.77;;;1.10;;
7211;SDS011;3647;48.792;9.802;2022-09-02T11:58:37;1.58;;;1.20;;
7211;SDS011;3647;48.792;9.802;2022-09-02T12:01:15;1.30;;;1.20;;
7211;SDS011;3647;48.792;9.802;2022-09-02T12:03:51;1.05;;;1.05;;
7211;SDS011;3647;48.792;9.802;2022-09-02T12:06:21;1.38;;;1.20;;
7211;SDS011;3647;48.792;9.802;2022-09-02T12:08:58;2.40;;;1.50;;
7211;SDS011;3647;48.792;9.802;2022-09-02T12:17:35;3.70;;;1.73;;
7211;SDS011;3647;48.792;9.802;2022-09-02T12:20:06;1.52;;;1.20;;
7211;SDS011;3647;48.792;9.802;2022-09-02T12:22:38;1.85;;;1.20;;
7211;SDS011;3647;48.792;9.802;2022-09-02T12:28:14;1.52;;;1.40;;
7211;SDS011;3647;48.792;9.802;2022-09-02T12:33:40;1.50;;;1.40;;
7211;SDS011;3647;48.792;9.802;2022-09-02T12:36:10;2.88;;;1.30;;
7211;SDS011;3647;48.792;9.802;2022-09-02T12:42:25;1.58;;;1.23;;
7211;SDS011;3647;48.792;9.802;2022-09-02T12:45:02;2.50;;;1.45;;
7211;SDS011;3647;48.792;9.802;2022-09-02T12:47:39;3.83;;;1.80;;
7211;SDS011;3647;48.792;9.802;2022-09-02T12:50:18;2.17;;;1.45;;
7211;SDS011;3647;48.792;9.802;2022-09-02T12:53:00;1.92;;;1.60;;
7211;SDS011;3647;48.792;9.802;2022-09-02T12:55:51;2.55;;;1.35;;
7211;SDS011;3647;48.792;9.802;2022-09-02T12:58:21;3.47;;;1.60;;
7211;SDS011;3647;48.792;9.802;2022-09-02T13:00:53;1.70;;;1.60;;
7211;SDS011;3647;48.792;9.802;2022-09-02T13:06:40;1.80;;;1.50;;
7211;SDS011;3647;48.792;9.802;2022-09-02T13:09:30;2.08;;;1.60;;
7211;SDS011;3647;48.792;9.802;2022-09-02T13:12:40;1.40;;;1.30;;
7211;SDS011;3647;48.792;9.802;2022-09-02T13:18:50;1.60;;;1.30;;
7211;SDS011;3647;48.792;9.802;2022-09-02T13:24:42;3.47;;;1.38;;
7211;SDS011;3647;48.792;9.802;2022-09-02T13:27:33;2.90;;;1.20;;
7211;SDS011;3647;48.792;9.802;2022-09-02T13:30:19;3.85;;;1.40;;
7211;SDS011;3647;48.792;9.802;2022-09-02T13:32:57;2.15;;;1.33;;
7211;SDS011;3647;48.792;9.802;2022-09-02T13:35:26;1.30;;;1.20;;
7211;SDS011;3647;48.792;9.802;2022-09-02T13:37:54;1.10;;;1.10;;
7211;SDS011;3647;48.792;9.802;2022-09-02T13:40:26;1.30;;;1.20;;
7211;SDS011;3647;48.792;9.802;2022-09-02T13:42:54;6.20;;;1.70;;
7211;SDS011;3647;48.792;9.802;2022-09-02T13:45:23;2.47;;;1.33;;
7211;SDS011;3647;48.792;9.802;2022-09-02T13:47:52;2.63;;;1.60;;
7211;SDS011;3647;48.792;9.802;2022-09-02T13:50:21;3.70;;;1.70;;
7211;SDS011;3647;48.792;9.802;2022-09-02T13:52:50;1.85;;;1.42;;
7211;SDS011;3647;48.792;9.802;2022-09-02T13:55:19;3.15;;;2.00;;
7211;SDS011;3647;48.792;9.802;2022-09-02T13:57:51;2.13;;;1.60;;
7211;SDS011;3647;48.792;9.802;2022-09-02T14:00:26;1.20;;;1.10;;
7211;SDS011;3647;48.792;9.802;2022-09-02T14:02:56;1.38;;;1.27;;
7211;SDS011;3647;48.792;9.802;2022-09-02T14:05:25;1.63;;;1.33;;
7211;SDS011;3647;48.792;9.802;2022-09-02T14:07:54;1.48;;;1.38;;
7211;SDS011;3647;48.792;9.802;2022-09-02T14:10:24;1.50;;;1.40;;
7211;SDS011;3647;48.792;9.802;2022-09-02T14:12:54;1.50;;;1.30;;
7211;SDS011;3647;48.792;9.802;2022-09-02T14:15:23;1.35;;;1.10;;
7211;SDS011;3647;48.792;9.802;2022-09-02T14:20:50;1.00;;;1.00;;
7211;SDS011;3647;48.792;9.802;2022-09-02T14:23:22;1.45;;;1.35;;
7211;SDS011;3647;48.792;9.802;2022-09-02T14:25:51;1.83;;;1.40;;
7211;SDS011;3647;48.792;9.802;2022-09-02T14:28:22;2.08;;;1.40;;
7211;SDS011;3647;48.792;9.802;2022-09-02T14:30:55;1.42;;;1.33;;
7211;SDS011;3647;48.792;9.802;2022-09-02T14:33:25;2.20;;;1.30;;
7211;SDS011;3647;48.792;9.802;2022-09-02T14:35:59;2.60;;;1.50;;
7211;SDS011;3647;48.792;9.802;2022-09-02T14:38:28;1.50;;;1.40;;
7211;SDS011;3647;48.792;9.802;2022-09-02T14:40:59;2.63;;;1.42;;
7211;SDS011;3647;48.792;9.802;2022-09-02T14:43:29;1.38;;;1.27;;
7211;SDS011;3647;48.792;9.802;2022-09-02T14:46:06;2.30;;;1.20;;
7211;SDS011;3647;48.792;9.802;2022-09-02T14:48:38;3.28;;;1.40;;
7211;SDS011;3647;48.792;9.802;2022-09-02T14:51:06;1.23;;;1.10;;
7211;SDS011;3647;48.792;9.802;2022-09-02T14:53:33;1.55;;;1.20;;
7211;SDS011;3647;48.792;9.802;2022-09-02T14:56:02;1.85;;;1.50;;
7211;SDS011;3647;48.792;9.802;2022-09-02T14:58:32;1.42;;;1.20;;
7211;SDS011;3647;48.792;9.802;2022-09-02T15:00:59;1.63;;;1.23;;
7211;SDS011;3647;48.792;9.802;2022-09-02T15:03:27;1.08;;;1.00;;
7211;SDS011;3647;48.792;9.802;2022-09-02T15:05:55;1.30;;;1.20;;
7211;SDS011;3647;48.792;9.802;2022-09-02T15:08:22;1.40;;;1.30;;
7211;SDS011;3647;48.792;9.802;2022-09-02T15:10:49;1.58;;;1.20;;
7211;SDS011;3647;48.792;9.802;2022-09-02T15:13:20;1.30;;;1.20;;
7211;SDS011;3647;48.792;9.802;2022-09-02T15:15:52;1.38;;;1.27;;
7211;SDS011;3647;48.792;9.802;2022-09-02T15:18:21;2.58;;;1.08;;
7211;SDS011;3647;48.792;9.802;2022-09-02T15:20:48;1.50;;;1.40;;
7211;SDS011;3647;48.792;9.802;2022-09-02T15:23:15;1.35;;;1.25;;
7211;SDS011;3647;48.792;9.802;2022-09-02T15:25:42;3.53;;;1.40;;
7211;SDS011;3647;48.792;9.802;2022-09-02T15:28:09;2.20;;;1.30;;
7211;SDS011;3647;48.792;9.802;2022-09-02T15:30:37;1.27;;;1.17;;
7211;SDS011;3647;48.792;9.802;2022-09-02T15:33:05;2.70;;;1.45;;
7211;SDS011;3647;48.792;9.802;2022-09-02T15:35:33;1.90;;;1.20;;
7211;SDS011;3647;48.792;9.802;2022-09-02T15:38:00;1.10;;;1.10;;
7211;SDS011;3647;48.792;9.802;2022-09-02T15:40:27;2.85;;;1.55;;
7211;SDS011;3647;48.792;9.802;2022-09-02T15:42:55;1.40;;;1.30;;
7211;SDS011;3647;48.792;9.802;2022-09-02T15:45:22;1.58;;;1.30;;
7211;SDS011;3647;48.792;9.802;2022-09-02T15:47:50;1.40;;;1.30;;
7211;SDS011;3647;48.792;9.802;2022-09-02T15:50:18;1.30;;;1.20;;
7211;SDS011;3647;48.792;9.802;2022-09-02T15:52:45;1.38;;;1.23;;
7211;SDS011;3647;48.792;9.802;2022-09-02T15:55:12;1.80;;;1.67;;
7211;SDS011;3647;48.792;9.802;2022-09-02T15:57:39;2.25;;;1.30;;
7211;SDS011;3647;48.792;9.802;2022-09-02T16:00:06;1.30;;;1.20;;
7211;SDS011;3647;48.792;9.802;2022-09-02T16:02:34;1.35;;;1.25;;
7211;SDS011;3647;48.792;9.802;2022-09-02T16:05:01;1.23;;;1.13;;
7211;SDS011;3647;48.792;9.802;2022-09-02T16:07:30;1.45;;;1.25;;
7211;SDS011;3647;48.792;9.802;2022-09-02T16:09:56;2.75;;;1.38;;
7211;SDS011;3647;48.792;9.802;2022-09-02T16:12:23;1.45;;;1.35;;
7211;SDS011;3647;48.792;9.802;2022-09-02T16:14:50;3.78;;;1.35;;
7211;SDS011;3647;48.792;9.802;2022-09-02T16:17:17;1.40;;;1.23;;
7211;SDS011;3647;48.792;9.802;2022-09-02T16:19:44;1.38;;;1.27;;
7211;SDS011;3647;48.792;9.802;2022-09-02T16:22:10;1.70;;;1.40;;
7211;SDS011;3647;48.792;9.802;2022-09-02T16:24:38;1.60;;;1.50;;
7211;SDS011;3647;48.792;9.802;2022-09-02T16:27:05;2.83;;;1.27;;
7211;SDS011;3647;48.792;9.802;2022-09-02T16:29:33;1.10;;;1.10;;
7211;SDS011;3647;48.792;9.802;2022-09-02T16:32:01;2.40;;;1.35;;
7211;SDS011;3647;48.792;9.802;2022-09-02T16:34:29;3.00;;;1.50;;
7211;SDS011;3647;48.792;9.802;2022-09-02T16:36:56;1.70;;;1.40;;
7211;SDS011;3647;48.792;9.802;2022-09-02T16:39:24;3.03;;;1.55;;
7211;SDS011;3647;48.792;9.802;2022-09-02T16:41:52;1.90;;;1.67;;
7211;SDS011;3647;48.792;9.802;2022-09-02T16:44:19;3.15;;;2.05;;
7211;SDS011;3647;48.792;9.802;2022-09-02T16:46:48;2.50;;;1.88;;
7211;SDS011;3647;48.792;9.802;2022-09-02T16:49:17;2.22;;;1.83;;
7211;SDS011;3647;48.792;9.802;2022-09-02T16:51:45;2.05;;;1.60;;
7211;SDS011;3647;48.792;9.802;2022-09-02T16:54:13;3.03;;;1.67;;
7211;SDS011;3647;48.792;9.802;2022-09-02T16:56:41;1.60;;;1.48;;
7211;SDS011;3647;48.792;9.802;2022-09-02T16:59:09;1.50;;;1.40;;
7211;SDS011;3647;48.792;9.802;2022-09-02T17:01:37;2.47;;;1.63;;
7211;SDS011;3647;48.792;9.802;2022-09-02T17:04:05;3.20;;;1.42;;
7211;SDS011;3647;48.792;9.802;2022-09-02T17:06:33;1.83;;;1.50;;
7211;SDS011;3647;48.792;9.802;2022-09-02T17:09:00;1.75;;;1.65;;
7211;SDS011;3647;48.792;9.802;2022-09-02T17:11:27;5.57;;;2.42;;
7211;SDS011;3647;48.792;9.802;2022-09-02T17:13:56;3.25;;;2.42;;
7211;SDS011;3647;48.792;9.802;2022-09-02T17:16:26;3.83;;;1.55;;
7211;SDS011;3647;48.792;9.802;2022-09-02T17:18:54;5.47;;;2.00;;
7211;SDS011;3647;48.792;9.802;2022-09-02T17:21:22;1.70;;;1.60;;
7211;SDS011;3647;48.792;9.802;2022-09-02T17:23:51;2.97;;;1.67;;
7211;SDS011;3647;48.792;9.802;2022-09-02T17:26:19;3.28;;;1.90;;
7211;SDS011;3647;48.792;9.802;2022-09-02T17:28:48;1.77;;;1.67;;
7211;SDS011;3647;48.792;9.802;2022-09-02T17:31:19;3.10;;;2.10;;
7211;SDS011;3647;48.792;9.802;2022-09-02T17:33:49;2.85;;;2.35;;
7211;SDS011;3647;48.792;9.802;2022-09-02T17:36:17;3.17;;;2.40;;
7211;SDS011;3647;48.792;9.802;2022-09-02T17:38:44;2.60;;;2.20;;
7211;SDS011;3647;48.792;9.802;2022-09-02T17:41:12;2.38;;;2.17;;
7211;SDS011;3647;48.792;9.802;2022-09-02T17:43:57;5.55;;;1.70;;
7211;SDS011;3647;48.792;9.802;2022-09-02T17:46:24;3.25;;;2.15;;
7211;SDS011;3647;48.792;9.802;2022-09-02T17:48:52;3.17;;;2.28;;
7211;SDS011;3647;48.792;9.802;2022-09-02T17:51:21;2.33;;;2.10;;
7211;SDS011;3647;48.792;9.802;2022-09-02T17:53:48;3.35;;;2.22;;
7211;SDS011;3647;48.792;9.802;2022-09-02T17:56:18;2.33;;;2.08;;
7211;SDS011;3647;48.792;9.802;2022-09-02T17:59:09;2.50;;;1.77;;
7211;SDS011;3647;48.792;9.802;2022-09-02T18:01:52;1.75;;;1.65;;
7211;SDS011;3647;48.792;9.802;2022-09-02T18:04:32;3.22;;;1.70;;
7211;SDS011;3647;48.792;9.802;2022-09-02T18:07:13;2.35;;;1.92;;
7211;SDS011;3647;48.792;9.802;2022-09-02T18:09:53;4.30;;;2.25;;
7211;SDS011;3647;48.792;9.802;2022-09-02T18:12:21;2.67;;;2.05;;
7211;SDS011;3647;48.792;9.802;2022-09-02T18:14:49;3.10;;;2.00;;
7211;SDS011;3647;48.792;9.802;2022-09-02T18:17:24;2.28;;;1.83;;
7211;SDS011;3647;48.792;9.802;2022-09-02T18:19:57;2.35;;;2.00;;
7211;SDS011;3647;48.792;9.802;2022-09-02T18:25:41;2.25;;;2.03;;
7211;SDS011;3647;48.792;9.802;2022-09-02T18:28:15;3.20;;;1.92;;
7211;SDS011;3647;48.792;9.802;2022-09-02T18:30:52;3.83;;;2.45;;
7211;SDS011;3647;48.792;9.802;2022-09-02T18:33:33;2.22;;;2.00;;
7211;SDS011;3647;48.792;9.802;2022-09-02T18:36:11;2.03;;;1.88;;
7211;SDS011;3647;48.792;9.802;2022-09-02T18:38:45;2.65;;;2.45;;
7211;SDS011;3647;48.792;9.802;2022-09-02T18:41:24;4.50;;;2.15;;
7211;SDS011;3647;48.792;9.802;2022-09-02T18:44:09;4.78;;;1.90;;
7211;SDS011;3647;48.792;9.802;2022-09-02T18:46:44;4.18;;;2.40;;
7211;SDS011;3647;48.792;9.802;2022-09-02T18:49:14;4.07;;;2.35;;
7211;SDS011;3647;48.792;9.802;2022-09-02T18:51:45;2.53;;;2.10;;
7211;SDS011;3647;48.792;9.802;2022-09-02T18:54:16;3.63;;;2.30;;
7211;SDS011;3647;48.792;9.802;2022-09-02T18:56:47;3.33;;;2.30;;
7211;SDS011;3647;48.792;9.802;2022-09-02T18:59:20;4.22;;;2.40;;
7211;SDS011;3647;48.792;9.802;2022-09-02T19:01:51;2.25;;;2.08;;
7211;SDS011;3647;48.792;9.802;2022-09-02T19:04:19;3.17;;;2.50;;
7211;SDS011;3647;48.792;9.802;2022-09-02T19:06:47;2.00;;;1.90;;
7211;SDS011;3647;48.792;9.802;2022-09-02T19:09:15;3.95;;;2.13;;
7211;SDS011;3647;48.792;9.802;2022-09-02T19:11:46;2.25;;;1.90;;
7211;SDS011;3647;48.792;9.802;2022-09-02T19:14:17;2.92;;;2.03;;
7211;SDS011;3647;48.792;9.802;2022-09-02T19:16:51;2.88;;;2.00;;
7211;SDS011;3647;48.792;9.802;2022-09-02T19:19:18;2.90;;;2.28;;
7211;SDS011;3647;48.792;9.802;2022-09-02T19:21:45;4.20;;;2.40;;
7211;SDS011;3647;48.792;9.802;2022-09-02T19:24:16;2.65;;;1.90;;
7211;SDS011;3647;48.792;9.802;2022-09-02T19:26:48;3.15;;;2.50;;
7211;SDS011;3647;48.792;9.802;2022-09-02T19:29:18;2.30;;;2.00;;
7211;SDS011;3647;48.792;9.802;2022-09-02T19:31:45;5.28;;;2.33;;
7211;SDS011;3647;48.792;9.802;2022-09-02T19:34:13;3.38;;;2.45;;
7211;SDS011;3647;48.792;9.802;2022-09-02T19:36:41;2.47;;;2.28;;
7211;SDS011;3647;48.792;9.802;2022-09-02T19:39:12;3.08;;;2.60;;
7211;SDS011;3647;48.792;9.802;2022-09-02T19:41:38;5.10;;;2.03;;
7211;SDS011;3647;48.792;9.802;2022-09-02T19:44:05;2.85;;;2.10;;
7211;SDS011;3647;48.792;9.802;2022-09-02T19:46:34;2.92;;;2.10;;
7211;SDS011;3647;48.792;9.802;2022-09-02T19:49:01;3.17;;;2.10;;
7211;SDS011;3647;48.792;9.802;2022-09-02T19:51:28;2.70;;;2.30;;
7211;SDS011;3647;48.792;9.802;2022-09-02T19:53:55;5.38;;;2.22;;
7211;SDS011;3647;48.792;9.802;2022-09-02T19:56:25;2.25;;;2.05;;
7211;SDS011;3647;48.792;9.802;2022-09-02T19:58:52;2.55;;;2.28;;
7211;SDS011;3647;48.792;9.802;2022-09-02T20:01:19;2.53;;;1.92;;
7211;SDS011;3647;48.792;9.802;2022-09-02T20:03:45;2.33;;;2.13;;
7211;SDS011;3647;48.792;9.802;2022-09-02T20:06:12;1.98;;;1.88;;
7211;SDS011;3647;48.792;9.802;2022-09-02T20:08:39;2.00;;;1.80;;
7211;SDS011;3647;48.792;9.802;2022-09-02T20:11:06;3.70;;;2.22;;
7211;SDS011;3647;48.792;9.802;2022-09-02T20:13:34;2.40;;;2.20;;
7211;SDS011;3647;48.792;9.802;2022-09-02T20:16:02;2.17;;;2.05;;
7211;SDS011;3647;48.792;9.802;2022-09-02T20:18:29;2.75;;;2.13;;
7211;SDS011;3647;48.792;9.802;2022-09-02T20:20:58;2.30;;;2.05;;
7211;SDS011;3647;48.792;9.802;2022-09-02T20:23:26;5.07;;;2.30;;
7211;SDS011;3647;48.792;9.802;2022-09-02T20:26:01;2.55;;;1.95;;
7211;SDS011;3647;48.792;9.802;2022-09-02T20:28:41;3.20;;;2.35;;
7211;SDS011;3647;48.792;9.802;2022-09-02T20:31:22;3.88;;;2.70;;
7211;SDS011;3647;48.792;9.802;2022-09-02T20:34:02;4.25;;;2.20;;
7211;SDS011;3647;48.792;9.802;2022-09-02T20:36:36;5.40;;;2.20;;
7211;SDS011;3647;48.792;9.802;2022-09-02T20:39:15;2.42;;;2.20;;
7211;SDS011;3647;48.792;9.802;2022-09-02T20:41:53;2.63;;;2.42;;
7211;SDS011;3647;48.792;9.802;2022-09-02T20:44:36;2.20;;;2.00;;
7211;SDS011;3647;48.792;9.802;2022-09-02T20:50:14;2.30;;;2.10;;
7211;SDS011;3647;48.792;9.802;2022-09-02T20:52:53;2.38;;;2.17;;
7211;SDS011;3647;48.792;9.802;2022-09-02T20:55:30;2.47;;;1.75;;
7211;SDS011;3647;48.792;9.802;2022-09-02T20:58:04;3.97;;;2.08;;
7211;SDS011;3647;48.792;9.802;2022-09-02T21:00:57;3.78;;;2.03;;
7211;SDS011;3647;48.792;9.802;2022-09-02T21:03:31;2.50;;;2.30;;
7211;SDS011;3647;48.792;9.802;2022-09-02T21:06:05;2.90;;;2.60;;
7211;SDS011;3647;48.792;9.802;2022-09-02T21:08:37;2.60;;;2.20;;
7211;SDS011;3647;48.792;9.802;2022-09-02T21:11:09;2.17;;;1.73;;
7211;SDS011;3647;48.792;9.802;2022-09-02T21:13:41;3.50;;;2.03;;
7211;SDS011;3647;48.792;9.802;2022-09-02T21:16:13;2.00;;;1.88;;
7211;SDS011;3647;48.792;9.802;2022-09-02T21:18:45;1.80;;;1.70;;
7211;SDS011;3647;48.792;9.802;2022-09-02T21:21:20;1.88;;;1.77;;
7211;SDS011;3647;48.792;9.802;2022-09-02T21:23:51;2.38;;;1.70;;
7211;SDS011;3647;48.792;9.802;2022-09-02T21:26:23;2.22;;;1.63;;
7211;SDS011;3647;48.792;9.802;2022-09-02T21:29:03;2.30;;;2.08;;
7211;SDS011;3647;48.792;9.802;2022-09-02T21:31:38;2.03;;;1.83;;
7211;SDS011;3647;48.792;9.802;2022-09-02T21:34:13;2.22;;;1.90;;
7211;SDS011;3647;48.792;9.802;2022-09-02T21:36:43;4.80;;;1.83;;
7211;SDS011;3647;48.792;9.802;2022-09-02T21:39:12;3.20;;;2.05;;
7211;SDS011;3647;48.792;9.802;2022-09-02T21:41:43;1.75;;;1.65;;
7211;SDS011;3647;48.792;9.802;2022-09-02T21:44:16;2.30;;;2.10;;
7211;SDS011;3647;48.792;9.802;2022-09-02T21:46:51;2.90;;;1.60;;
7211;SDS011;3647;48.792;9.802;2022-09-02T21:49:37;2.63;;;1.75;;
7211;SDS011;3647;48.792;9.802;2022-09-02T21:52:20;4.00;;;1.90;;
7211;SDS011;3647;48.792;9.802;2022-09-02T21:54:54;1.85;;;1.75;;
7211;SDS011;3647;48.792;9.802;2022-09-02T21:57:44;2.15;;;1.75;;
7211;SDS011;3647;48.792;9.802;2022-09-02T22:00:27;3.97;;;1.67;;
7211;SDS011;3647;48.792;9.802;2022-09-02T22:02:56;2.00;;;1.70;;
7211;SDS011;3647;48.792;9.802;2022-09-02T22:05:31;2.55;;;1.60;;
7211;SDS011;3647;48.792;9.802;2022-09-02T22:08:07;2.53;;;1.73;;
7211;SDS011;3647;48.792;9.802;2022-09-02T22:10:45;1.80;;;1.70;;
7211;SDS011;3647;48.792;9.802;2022-09-02T22:13:23;2.63;;;1.70;;
7211;SDS011;3647;48.792;9.802;2022-09-02T22:15:53;4.45;;;1.83;;
7211;SDS011;3647;48.792;9.802;2022-09-02T22:18:29;2.03;;;1.70;;
7211;SDS011;3647;48.792;9.802;2022-09-02T22:21:04;1.80;;;1.70;;
7211;SDS011;3647;48.792;9.802;2022-09-02T22:23:39;3.53;;;1.58;;
7211;SDS011;3647;48.792;9.802;2022-09-02T22:26:10;4.70;;;1.70;;
7211;SDS011;3647;48.792;9.802;2022-09-02T22:28:45;1.40;;;1.30;;
7211;SDS011;3647;48.792;9.802;2022-09-02T22:31:17;2.05;;;1.95;;